sensor_id;sensor_type;location;lat;lon;timestamp;temperature;humidity
15844;DHT22;50807;52.436;13.346;2023-05-23T00:00:10;22.90;47.90
15844;DHT22;50807;52.436;13.346;2023-05-23T00:00:43;22.90;47.90
15844;DHT22;50807;52.436;13.346;2023-05-23T00:01:14;22.90;47.90
15844;DHT22;50807;52.436;13.346;2023-05-23T00:01:46;22.90;47.90
15844;DHT22;50807;52.436;13.346;2023-05-23T00:02:17;22.90;48.00
15844;DHT22;50807;52.436;13.346;2023-05-23T00:02:47;22.90;48.00
15844;DHT22;50807;52.436;13.346;2023-05-23T00:03:19;22.90;48.00
15844;DHT22;50807;52.436;13.346;2023-05-23T00:03:52;22.90;48.10
15844;DHT22;50807;52.436;13.346;2023-05-23T00:04:25;22.90;48.10
15844;DHT22;50807;52.436;13.346;2023-05-23T00:04:56;22.90;48.10
15844;DHT22;50807;52.436;13.346;2023-05-23T00:05:27;22.80;48.10
15844;DHT22;50807;52.436;13.346;2023-05-23T00:05:58;22.80;48.20
15844;DHT22;50807;52.436;13.346;2023-05-23T00:06:31;22.80;48.20
15844;DHT22;50807;52.436;13.346;2023-05-23T00:07:03;22.80;48.30
15844;DHT22;50807;52.436;13.346;2023-05-23T00:07:34;22.80;48.30
15844;DHT22;50807;52.436;13.346;2023-05-23T00:08:06;22.80;48.30
15844;DHT22;50807;52.436;13.346;2023-05-23T00:08:37;22.80;48.40
15844;DHT22;50807;52.436;13.346;2023-05-23T00:09:08;22.80;48.40
15844;DHT22;50807;52.436;13.346;2023-05-23T00:09:39;22.80;48.40
15844;DHT22;50807;52.436;13.346;2023-05-23T00:10:10;22.80;49.00
15844;DHT22;50807;52.436;13.346;2023-05-23T00:10:41;22.80;48.40
15844;DHT22;50807;52.436;13.346;2023-05-23T00:11:13;22.80;48.40
15844;DHT22;50807;52.436;13.346;2023-05-23T00:11:44;22.80;48.50
15844;DHT22;50807;52.436;13.346;2023-05-23T00:12:15;22.80;48.50
15844;DHT22;50807;52.436;13.346;2023-05-23T00:12:46;22.80;48.60
15844;DHT22;50807;52.436;13.346;2023-05-23T00:13:18;22.80;48.60
15844;DHT22;50807;52.436;13.346;2023-05-23T00:13:49;22.80;48.60
15844;DHT22;50807;52.436;13.346;2023-05-23T00:14:20;22.80;48.60
15844;DHT22;50807;52.436;13.346;2023-05-23T00:14:52;22.70;48.50
15844;DHT22;50807;52.436;13.346;2023-05-23T00:15:23;22.70;48.50
15844;DHT22;50807;52.436;13.346;2023-05-23T00:15:54;22.70;48.60
15844;DHT22;50807;52.436;13.346;2023-05-23T00:16:26;22.70;48.60
15844;DHT22;50807;52.436;13.346;2023-05-23T00:16:57;22.70;48.70
15844;DHT22;50807;52.436;13.346;2023-05-23T00:17:29;22.70;48.70
15844;DHT22;50807;52.436;13.346;2023-05-23T00:18:00;22.70;48.70
15844;DHT22;50807;52.436;13.346;2023-05-23T00:18:32;22.70;48.70
15844;DHT22;50807;52.436;13.346;2023-05-23T00:19:02;22.70;48.80
15844;DHT22;50807;52.436;13.346;2023-05-23T00:19:34;22.70;48.80
15844;DHT22;50807;52.436;13.346;2023-05-23T00:20:06;22.70;48.80
15844;DHT22;50807;52.436;13.346;2023-05-23T00:20:39;22.70;48.90
15844;DHT22;50807;52.436;13.346;2023-05-23T00:21:11;22.70;48.90
15844;DHT22;50807;52.436;13.346;2023-05-23T00:21:44;22.70;48.90
15844;DHT22;50807;52.436;13.346;2023-05-23T00:22:18;22.70;49.00
15844;DHT22;50807;52.436;13.346;2023-05-23T00:22:49;22.70;48.90
15844;DHT22;50807;52.436;13.346;2023-05-23T00:23:20;22.70;49.00
15844;DHT22;50807;52.436;13.346;2023-05-23T00:23:54;22.70;49.00
15844;DHT22;50807;52.436;13.346;2023-05-23T00:24:26;22.70;49.00
15844;DHT22;50807;52.436;13.346;2023-05-23T00:24:57;22.70;49.00
15844;DHT22;50807;52.436;13.346;2023-05-23T00:25:31;22.70;49.10
15844;DHT22;50807;52.436;13.346;2023-05-23T00:26:03;22.70;49.10
15844;DHT22;50807;52.436;13.346;2023-05-23T00:26:34;22.70;49.10
15844;DHT22;50807;52.436;13.346;2023-05-23T00:27:06;22.70;49.20
15844;DHT22;50807;52.436;13.346;2023-05-23T00:27:37;22.60;49.20
15844;DHT22;50807;52.436;13.346;2023-05-23T00:28:08;22.60;49.20
15844;DHT22;50807;52.436;13.346;2023-05-23T00:28:40;22.60;49.20
15844;DHT22;50807;52.436;13.346;2023-05-23T00:29:12;22.60;49.20
15844;DHT22;50807;52.436;13.346;2023-05-23T00:29:45;22.60;49.20
15844;DHT22;50807;52.436;13.346;2023-05-23T00:30:16;22.60;49.20
15844;DHT22;50807;52.436;13.346;2023-05-23T00:30:48;22.60;49.20
15844;DHT22;50807;52.436;13.346;2023-05-23T00:31:19;22.60;49.20
15844;DHT22;50807;52.436;13.346;2023-05-23T00:31:49;22.60;49.30
15844;DHT22;50807;52.436;13.346;2023-05-23T00:32:21;22.60;49.30
15844;DHT22;50807;52.436;13.346;2023-05-23T00:32:52;22.60;49.30
15844;DHT22;50807;52.436;13.346;2023-05-23T00:33:23;22.60;49.30
15844;DHT22;50807;52.436;13.346;2023-05-23T00:33:55;22.60;49.30
15844;DHT22;50807;52.436;13.346;2023-05-23T00:34:26;22.60;49.40
15844;DHT22;50807;52.436;13.346;2023-05-23T00:34:57;22.60;49.40
15844;DHT22;50807;52.436;13.346;2023-05-23T00:35:28;22.50;49.30
15844;DHT22;50807;52.436;13.346;2023-05-23T00:35:59;22.60;49.40
15844;DHT22;50807;52.436;13.346;2023-05-23T00:36:30;22.60;49.50
15844;DHT22;50807;52.436;13.346;2023-05-23T00:37:06;22.60;49.50
15844;DHT22;50807;52.436;13.346;2023-05-23T00:37:37;22.50;49.40
15844;DHT22;50807;52.436;13.346;2023-05-23T00:38:08;22.50;49.40
15844;DHT22;50807;52.436;13.346;2023-05-23T00:38:40;22.50;49.50
15844;DHT22;50807;52.436;13.346;2023-05-23T00:39:12;22.50;49.60
15844;DHT22;50807;52.436;13.346;2023-05-23T00:39:48;22.50;49.60
15844;DHT22;50807;52.436;13.346;2023-05-23T00:40:19;22.50;49.50
15844;DHT22;50807;52.436;13.346;2023-05-23T00:40:51;22.50;49.60
15844;DHT22;50807;52.436;13.346;2023-05-23T00:41:22;22.50;49.60
15844;DHT22;50807;52.436;13.346;2023-05-23T00:41:55;22.50;49.60
15844;DHT22;50807;52.436;13.346;2023-05-23T00:42:26;22.50;49.70
15844;DHT22;50807;52.436;13.346;2023-05-23T00:42:58;22.50;49.70
15844;DHT22;50807;52.436;13.346;2023-05-23T00:43:30;22.50;49.70
15844;DHT22;50807;52.436;13.346;2023-05-23T00:44:02;22.50;49.70
15844;DHT22;50807;52.436;13.346;2023-05-23T00:44:35;22.50;49.80
15844;DHT22;50807;52.436;13.346;2023-05-23T00:45:06;22.50;49.80
15844;DHT22;50807;52.436;13.346;2023-05-23T00:45:38;22.50;49.80
15844;DHT22;50807;52.436;13.346;2023-05-23T00:46:09;22.40;49.80
15844;DHT22;50807;52.436;13.346;2023-05-23T00:46:43;22.40;49.80
15844;DHT22;50807;52.436;13.346;2023-05-23T00:47:16;22.40;49.90
15844;DHT22;50807;52.436;13.346;2023-05-23T00:47:48;22.40;49.80
15844;DHT22;50807;52.436;13.346;2023-05-23T00:48:20;22.40;49.90
15844;DHT22;50807;52.436;13.346;2023-05-23T00:48:52;22.40;49.90
15844;DHT22;50807;52.436;13.346;2023-05-23T00:49:24;22.40;49.90
15844;DHT22;50807;52.436;13.346;2023-05-23T00:49:57;22.40;50.00
15844;DHT22;50807;52.436;13.346;2023-05-23T00:50:29;22.40;50.00
15844;DHT22;50807;52.436;13.346;2023-05-23T00:51:00;22.30;49.90
15844;DHT22;50807;52.436;13.346;2023-05-23T00:51:32;22.30;50.00
15844;DHT22;50807;52.436;13.346;2023-05-23T00:52:04;22.30;50.00
15844;DHT22;50807;52.436;13.346;2023-05-23T00:52:35;22.30;50.00
15844;DHT22;50807;52.436;13.346;2023-05-23T00:53:08;22.30;50.00
15844;DHT22;50807;52.436;13.346;2023-05-23T00:53:39;22.30;50.00
15844;DHT22;50807;52.436;13.346;2023-05-23T00:54:09;22.30;50.00
15844;DHT22;50807;52.436;13.346;2023-05-23T00:54:42;22.30;50.10
15844;DHT22;50807;52.436;13.346;2023-05-23T00:55:13;22.30;50.10
15844;DHT22;50807;52.436;13.346;2023-05-23T00:55:44;22.30;50.10
15844;DHT22;50807;52.436;13.346;2023-05-23T00:56:17;22.30;50.20
15844;DHT22;50807;52.436;13.346;2023-05-23T00:56:48;22.20;50.20
15844;DHT22;50807;52.436;13.346;2023-05-23T00:57:19;22.20;50.20
15844;DHT22;50807;52.436;13.346;2023-05-23T00:57:52;22.20;50.20
15844;DHT22;50807;52.436;13.346;2023-05-23T00:58:25;22.20;50.20
15844;DHT22;50807;52.436;13.346;2023-05-23T00:58:56;22.20;50.30
15844;DHT22;50807;52.436;13.346;2023-05-23T00:59:31;22.20;50.30
15844;DHT22;50807;52.436;13.346;2023-05-23T01:00:03;22.20;50.30
15844;DHT22;50807;52.436;13.346;2023-05-23T01:00:34;22.20;50.40
15844;DHT22;50807;52.436;13.346;2023-05-23T01:01:07;22.20;50.40
15844;DHT22;50807;52.436;13.346;2023-05-23T01:01:39;22.20;50.40
15844;DHT22;50807;52.436;13.346;2023-05-23T01:02:10;22.20;50.40
15844;DHT22;50807;52.436;13.346;2023-05-23T01:02:44;22.10;50.40
15844;DHT22;50807;52.436;13.346;2023-05-23T01:03:16;22.10;50.50
15844;DHT22;50807;52.436;13.346;2023-05-23T01:03:48;22.10;50.50
15844;DHT22;50807;52.436;13.346;2023-05-23T01:04:19;22.10;50.50
15844;DHT22;50807;52.436;13.346;2023-05-23T01:04:50;22.10;50.50
15844;DHT22;50807;52.436;13.346;2023-05-23T01:05:23;22.10;50.50
15844;DHT22;50807;52.436;13.346;2023-05-23T01:05:55;22.10;50.50
15844;DHT22;50807;52.436;13.346;2023-05-23T01:06:26;22.10;50.60
15844;DHT22;50807;52.436;13.346;2023-05-23T01:07:00;22.10;50.60
15844;DHT22;50807;52.436;13.346;2023-05-23T01:07:31;22.10;50.60
15844;DHT22;50807;52.436;13.346;2023-05-23T01:08:02;22.10;50.70
15844;DHT22;50807;52.436;13.346;2023-05-23T01:08:33;22.10;50.70
15844;DHT22;50807;52.436;13.346;2023-05-23T01:09:06;22.00;50.60
15844;DHT22;50807;52.436;13.346;2023-05-23T01:09:37;22.00;50.70
15844;DHT22;50807;52.436;13.346;2023-05-23T01:10:10;22.00;50.70
15844;DHT22;50807;52.436;13.346;2023-05-23T01:10:41;22.00;50.70
15844;DHT22;50807;52.436;13.346;2023-05-23T01:11:20;22.00;50.70
15844;DHT22;50807;52.436;13.346;2023-05-23T01:12:13;22.00;50.80
15844;DHT22;50807;52.436;13.346;2023-05-23T01:12:57;22.00;50.80
15844;DHT22;50807;52.436;13.346;2023-05-23T01:13:42;22.00;50.70
15844;DHT22;50807;52.436;13.346;2023-05-23T01:14:34;22.00;50.80
15844;DHT22;50807;52.436;13.346;2023-05-23T01:15:15;22.00;50.70
15844;DHT22;50807;52.436;13.346;2023-05-23T01:15:50;22.00;50.70
15844;DHT22;50807;52.436;13.346;2023-05-23T01:16:32;22.00;50.80
15844;DHT22;50807;52.436;13.346;2023-05-23T01:17:14;22.00;50.80
15844;DHT22;50807;52.436;13.346;2023-05-23T01:17:54;22.00;50.80
15844;DHT22;50807;52.436;13.346;2023-05-23T01:18:35;22.00;50.70
15844;DHT22;50807;52.436;13.346;2023-05-23T01:19:17;22.00;50.80
15844;DHT22;50807;52.436;13.346;2023-05-23T01:20:09;22.00;50.80
15844;DHT22;50807;52.436;13.346;2023-05-23T01:20:44;22.00;50.70
15844;DHT22;50807;52.436;13.346;2023-05-23T01:21:20;22.00;50.70
15844;DHT22;50807;52.436;13.346;2023-05-23T01:21:55;22.00;50.70
15844;DHT22;50807;52.436;13.346;2023-05-23T01:22:40;22.00;50.80
15844;DHT22;50807;52.436;13.346;2023-05-23T01:23:40;22.00;50.80
15844;DHT22;50807;52.436;13.346;2023-05-23T01:24:35;22.00;50.90
15844;DHT22;50807;52.436;13.346;2023-05-23T01:25:23;22.00;50.70
15844;DHT22;50807;52.436;13.346;2023-05-23T01:26:20;22.00;50.80
15844;DHT22;50807;52.436;13.346;2023-05-23T01:27:08;22.00;50.80
15844;DHT22;50807;52.436;13.346;2023-05-23T01:27:54;22.00;50.70
15844;DHT22;50807;52.436;13.346;2023-05-23T01:28:32;22.00;50.70
15844;DHT22;50807;52.436;13.346;2023-05-23T01:29:12;22.00;50.70
15844;DHT22;50807;52.436;13.346;2023-05-23T01:29:45;22.00;50.70
15844;DHT22;50807;52.436;13.346;2023-05-23T01:30:20;22.00;50.80
15844;DHT22;50807;52.436;13.346;2023-05-23T01:30:53;22.00;50.80
15844;DHT22;50807;52.436;13.346;2023-05-23T01:31:28;21.90;50.90
15844;DHT22;50807;52.436;13.346;2023-05-23T01:32:04;21.90;50.90
15844;DHT22;50807;52.436;13.346;2023-05-23T01:32:38;21.90;50.90
15844;DHT22;50807;52.436;13.346;2023-05-23T01:33:12;21.90;51.00
15844;DHT22;50807;52.436;13.346;2023-05-23T01:33:45;21.90;51.00
15844;DHT22;50807;52.436;13.346;2023-05-23T01:34:20;21.90;51.00
15844;DHT22;50807;52.436;13.346;2023-05-23T01:34:52;21.90;51.00
15844;DHT22;50807;52.436;13.346;2023-05-23T01:35:25;21.90;51.10
15844;DHT22;50807;52.436;13.346;2023-05-23T01:36:01;21.90;51.10
15844;DHT22;50807;52.436;13.346;2023-05-23T01:36:32;21.90;51.20
15844;DHT22;50807;52.436;13.346;2023-05-23T01:37:08;21.90;51.20
15844;DHT22;50807;52.436;13.346;2023-05-23T01:37:40;21.90;51.20
15844;DHT22;50807;52.436;13.346;2023-05-23T01:38:11;21.90;51.20
15844;DHT22;50807;52.436;13.346;2023-05-23T01:38:42;21.80;51.20
15844;DHT22;50807;52.436;13.346;2023-05-23T01:39:13;21.90;51.30
15844;DHT22;50807;52.436;13.346;2023-05-23T01:39:45;21.80;51.30
15844;DHT22;50807;52.436;13.346;2023-05-23T01:40:16;21.80;51.30
15844;DHT22;50807;52.436;13.346;2023-05-23T01:40:47;21.80;51.30
15844;DHT22;50807;52.436;13.346;2023-05-23T01:41:18;21.80;51.40
15844;DHT22;50807;52.436;13.346;2023-05-23T01:41:50;21.80;51.40
15844;DHT22;50807;52.436;13.346;2023-05-23T01:42:24;21.80;51.40
15844;DHT22;50807;52.436;13.346;2023-05-23T01:42:56;21.80;51.40
15844;DHT22;50807;52.436;13.346;2023-05-23T01:43:27;21.80;51.50
15844;DHT22;50807;52.436;13.346;2023-05-23T01:43:59;21.80;51.50
15844;DHT22;50807;52.436;13.346;2023-05-23T01:44:31;21.80;51.50
15844;DHT22;50807;52.436;13.346;2023-05-23T01:45:04;21.80;51.60
15844;DHT22;50807;52.436;13.346;2023-05-23T01:45:37;21.80;51.60
15844;DHT22;50807;52.436;13.346;2023-05-23T01:46:08;21.80;51.60
15844;DHT22;50807;52.436;13.346;2023-05-23T01:46:41;21.80;51.60
15844;DHT22;50807;52.436;13.346;2023-05-23T01:47:14;21.80;51.70
15844;DHT22;50807;52.436;13.346;2023-05-23T01:47:46;21.80;51.70
15844;DHT22;50807;52.436;13.346;2023-05-23T01:48:20;21.80;51.70
15844;DHT22;50807;52.436;13.346;2023-05-23T01:48:54;21.80;51.70
15844;DHT22;50807;52.436;13.346;2023-05-23T01:49:26;21.80;51.70
15844;DHT22;50807;52.436;13.346;2023-05-23T01:49:59;21.80;51.70
15844;DHT22;50807;52.436;13.346;2023-05-23T01:50:32;21.80;51.70
15844;DHT22;50807;52.436;13.346;2023-05-23T01:51:04;21.80;51.70
15844;DHT22;50807;52.436;13.346;2023-05-23T01:51:36;21.80;51.70
15844;DHT22;50807;52.436;13.346;2023-05-23T01:52:08;21.80;51.70
15844;DHT22;50807;52.436;13.346;2023-05-23T01:52:41;21.80;51.80
15844;DHT22;50807;52.436;13.346;2023-05-23T01:53:15;21.80;51.80
15844;DHT22;50807;52.436;13.346;2023-05-23T01:53:50;21.80;51.80
15844;DHT22;50807;52.436;13.346;2023-05-23T01:54:20;21.80;51.80
15844;DHT22;50807;52.436;13.346;2023-05-23T01:54:52;21.80;51.80
15844;DHT22;50807;52.436;13.346;2023-05-23T01:55:25;21.80;51.80
15844;DHT22;50807;52.436;13.346;2023-05-23T01:55:56;21.80;51.80
15844;DHT22;50807;52.436;13.346;2023-05-23T01:56:33;21.80;51.90
15844;DHT22;50807;52.436;13.346;2023-05-23T01:57:04;21.80;51.90
15844;DHT22;50807;52.436;13.346;2023-05-23T01:57:36;21.80;51.90
15844;DHT22;50807;52.436;13.346;2023-05-23T01:58:10;21.80;51.90
15844;DHT22;50807;52.436;13.346;2023-05-23T01:58:40;21.80;51.90
15844;DHT22;50807;52.436;13.346;2023-05-23T01:59:12;21.80;51.90
15844;DHT22;50807;52.436;13.346;2023-05-23T01:59:42;21.80;51.90
15844;DHT22;50807;52.436;13.346;2023-05-23T02:00:15;21.80;52.50
15844;DHT22;50807;52.436;13.346;2023-05-23T02:00:46;21.80;51.90
15844;DHT22;50807;52.436;13.346;2023-05-23T02:01:17;21.80;51.90
15844;DHT22;50807;52.436;13.346;2023-05-23T02:01:50;21.80;51.90
15844;DHT22;50807;52.436;13.346;2023-05-23T02:02:20;21.80;52.00
15844;DHT22;50807;52.436;13.346;2023-05-23T02:02:51;21.80;51.90
15844;DHT22;50807;52.436;13.346;2023-05-23T02:03:22;21.80;51.90
15844;DHT22;50807;52.436;13.346;2023-05-23T02:03:54;21.80;51.90
15844;DHT22;50807;52.436;13.346;2023-05-23T02:04:27;21.80;51.90
15844;DHT22;50807;52.436;13.346;2023-05-23T02:04:58;21.80;52.00
15844;DHT22;50807;52.436;13.346;2023-05-23T02:05:30;21.80;52.00
15844;DHT22;50807;52.436;13.346;2023-05-23T02:06:01;21.80;52.00
15844;DHT22;50807;52.436;13.346;2023-05-23T02:06:32;21.80;52.10
15844;DHT22;50807;52.436;13.346;2023-05-23T02:07:04;21.80;52.10
15844;DHT22;50807;52.436;13.346;2023-05-23T02:07:35;21.80;52.10
15844;DHT22;50807;52.436;13.346;2023-05-23T02:08:06;21.80;52.10
15844;DHT22;50807;52.436;13.346;2023-05-23T02:08:38;21.80;52.10
15844;DHT22;50807;52.436;13.346;2023-05-23T02:09:09;21.80;52.10
15844;DHT22;50807;52.436;13.346;2023-05-23T02:09:39;21.80;52.10
15844;DHT22;50807;52.436;13.346;2023-05-23T02:10:11;21.80;52.10
15844;DHT22;50807;52.436;13.346;2023-05-23T02:10:42;21.80;52.70
15844;DHT22;50807;52.436;13.346;2023-05-23T02:11:13;21.80;52.70
15844;DHT22;50807;52.436;13.346;2023-05-23T02:11:44;21.80;52.20
15844;DHT22;50807;52.436;13.346;2023-05-23T02:12:16;21.80;52.30
15844;DHT22;50807;52.436;13.346;2023-05-23T02:12:46;21.80;52.30
15844;DHT22;50807;52.436;13.346;2023-05-23T02:13:19;21.80;52.30
15844;DHT22;50807;52.436;13.346;2023-05-23T02:13:50;21.80;52.40
15844;DHT22;50807;52.436;13.346;2023-05-23T02:14:21;21.80;52.40
15844;DHT22;50807;52.436;13.346;2023-05-23T02:14:53;21.80;52.40
15844;DHT22;50807;52.436;13.346;2023-05-23T02:15:25;21.80;52.40
15844;DHT22;50807;52.436;13.346;2023-05-23T02:15:56;21.80;52.40
15844;DHT22;50807;52.436;13.346;2023-05-23T02:16:27;21.80;52.40
15844;DHT22;50807;52.436;13.346;2023-05-23T02:16:58;21.80;52.50
15844;DHT22;50807;52.436;13.346;2023-05-23T02:17:29;21.80;52.50
15844;DHT22;50807;52.436;13.346;2023-05-23T02:18:00;21.80;52.50
15844;DHT22;50807;52.436;13.346;2023-05-23T02:18:32;21.80;52.50
15844;DHT22;50807;52.436;13.346;2023-05-23T02:19:03;21.80;52.50
15844;DHT22;50807;52.436;13.346;2023-05-23T02:19:34;21.80;52.50
15844;DHT22;50807;52.436;13.346;2023-05-23T02:20:07;21.80;52.50
15844;DHT22;50807;52.436;13.346;2023-05-23T02:20:39;21.80;52.60
15844;DHT22;50807;52.436;13.346;2023-05-23T02:21:10;21.80;52.60
15844;DHT22;50807;52.436;13.346;2023-05-23T02:21:41;21.80;52.60
15844;DHT22;50807;52.436;13.346;2023-05-23T02:22:12;21.80;52.60
15844;DHT22;50807;52.436;13.346;2023-05-23T02:22:43;21.80;52.60
15844;DHT22;50807;52.436;13.346;2023-05-23T02:23:14;21.80;52.60
15844;DHT22;50807;52.436;13.346;2023-05-23T02:23:46;21.90;52.70
15844;DHT22;50807;52.436;13.346;2023-05-23T02:24:16;21.80;52.60
15844;DHT22;50807;52.436;13.346;2023-05-23T02:24:48;21.90;52.70
15844;DHT22;50807;52.436;13.346;2023-05-23T02:25:19;21.90;52.70
15844;DHT22;50807;52.436;13.346;2023-05-23T02:25:51;21.80;52.70
15844;DHT22;50807;52.436;13.346;2023-05-23T02:26:21;21.80;52.70
15844;DHT22;50807;52.436;13.346;2023-05-23T02:26:53;21.90;52.80
15844;DHT22;50807;52.436;13.346;2023-05-23T02:27:25;21.90;52.80
15844;DHT22;50807;52.436;13.346;2023-05-23T02:27:56;21.80;52.70
15844;DHT22;50807;52.436;13.346;2023-05-23T02:28:28;21.80;52.70
15844;DHT22;50807;52.436;13.346;2023-05-23T02:29:00;21.80;52.80
15844;DHT22;50807;52.436;13.346;2023-05-23T02:29:31;21.80;52.80
15844;DHT22;50807;52.436;13.346;2023-05-23T02:30:02;21.80;52.80
15844;DHT22;50807;52.436;13.346;2023-05-23T02:30:34;21.90;52.90
15844;DHT22;50807;52.436;13.346;2023-05-23T02:31:05;21.80;52.80
15844;DHT22;50807;52.436;13.346;2023-05-23T02:31:36;21.80;52.80
15844;DHT22;50807;52.436;13.346;2023-05-23T02:32:07;21.80;52.80
15844;DHT22;50807;52.436;13.346;2023-05-23T02:32:38;21.80;52.90
15844;DHT22;50807;52.436;13.346;2023-05-23T02:33:09;21.80;52.90
15844;DHT22;50807;52.436;13.346;2023-05-23T02:33:41;21.90;53.00
15844;DHT22;50807;52.436;13.346;2023-05-23T02:34:11;21.90;52.90
15844;DHT22;50807;52.436;13.346;2023-05-23T02:34:42;21.90;52.90
15844;DHT22;50807;52.436;13.346;2023-05-23T02:35:16;21.90;52.90
15844;DHT22;50807;52.436;13.346;2023-05-23T02:35:47;21.80;52.80
15844;DHT22;50807;52.436;13.346;2023-05-23T02:36:20;21.80;52.90
15844;DHT22;50807;52.436;13.346;2023-05-23T02:36:51;21.80;52.90
15844;DHT22;50807;52.436;13.346;2023-05-23T02:37:23;21.80;53.00
15844;DHT22;50807;52.436;13.346;2023-05-23T02:37:53;21.80;53.00
15844;DHT22;50807;52.436;13.346;2023-05-23T02:38:24;21.90;53.00
15844;DHT22;50807;52.436;13.346;2023-05-23T02:38:57;21.90;53.00
15844;DHT22;50807;52.436;13.346;2023-05-23T02:39:27;21.80;53.00
15844;DHT22;50807;52.436;13.346;2023-05-23T02:39:58;21.80;53.00
15844;DHT22;50807;52.436;13.346;2023-05-23T02:40:29;21.80;53.00
15844;DHT22;50807;52.436;13.346;2023-05-23T02:41:02;21.80;53.60
15844;DHT22;50807;52.436;13.346;2023-05-23T02:41:33;21.80;53.00
15844;DHT22;50807;52.436;13.346;2023-05-23T02:42:06;21.90;53.10
15844;DHT22;50807;52.436;13.346;2023-05-23T02:42:38;21.80;53.00
15844;DHT22;50807;52.436;13.346;2023-05-23T02:43:08;21.80;53.10
15844;DHT22;50807;52.436;13.346;2023-05-23T02:43:40;21.80;53.10
15844;DHT22;50807;52.436;13.346;2023-05-23T02:44:11;21.80;53.30
15844;DHT22;50807;52.436;13.346;2023-05-23T02:44:43;21.80;53.10
15844;DHT22;50807;52.436;13.346;2023-05-23T02:45:14;21.90;53.10
15844;DHT22;50807;52.436;13.346;2023-05-23T02:45:45;21.80;53.10
15844;DHT22;50807;52.436;13.346;2023-05-23T02:46:17;21.80;53.10
15844;DHT22;50807;52.436;13.346;2023-05-23T02:46:48;21.80;53.20
15844;DHT22;50807;52.436;13.346;2023-05-23T02:47:18;21.80;53.20
15844;DHT22;50807;52.436;13.346;2023-05-23T02:47:50;21.80;53.10
15844;DHT22;50807;52.436;13.346;2023-05-23T02:48:21;21.80;53.20
15844;DHT22;50807;52.436;13.346;2023-05-23T02:48:52;21.80;53.20
15844;DHT22;50807;52.436;13.346;2023-05-23T02:49:23;21.80;53.20
15844;DHT22;50807;52.436;13.346;2023-05-23T02:49:55;21.80;53.20
15844;DHT22;50807;52.436;13.346;2023-05-23T02:50:26;21.80;53.20
15844;DHT22;50807;52.436;13.346;2023-05-23T02:50:58;21.80;53.20
15844;DHT22;50807;52.436;13.346;2023-05-23T02:51:28;21.90;53.20
15844;DHT22;50807;52.436;13.346;2023-05-23T02:52:01;21.80;53.20
15844;DHT22;50807;52.436;13.346;2023-05-23T02:52:33;21.80;53.20
15844;DHT22;50807;52.436;13.346;2023-05-23T02:53:03;21.90;53.20
15844;DHT22;50807;52.436;13.346;2023-05-23T02:53:34;21.80;53.20
15844;DHT22;50807;52.436;13.346;2023-05-23T02:54:06;21.80;53.20
15844;DHT22;50807;52.436;13.346;2023-05-23T02:54:37;21.80;53.20
15844;DHT22;50807;52.436;13.346;2023-05-23T02:55:08;21.80;53.20
15844;DHT22;50807;52.436;13.346;2023-05-23T02:55:39;21.80;53.90
15844;DHT22;50807;52.436;13.346;2023-05-23T02:56:12;21.90;53.30
15844;DHT22;50807;52.436;13.346;2023-05-23T02:56:43;21.90;53.30
15844;DHT22;50807;52.436;13.346;2023-05-23T02:57:14;21.80;53.30
15844;DHT22;50807;52.436;13.346;2023-05-23T02:57:46;21.90;53.40
15844;DHT22;50807;52.436;13.346;2023-05-23T02:58:17;21.80;53.30
15844;DHT22;50807;52.436;13.346;2023-05-23T02:58:49;21.90;53.30
15844;DHT22;50807;52.436;13.346;2023-05-23T02:59:22;21.90;53.40
15844;DHT22;50807;52.436;13.346;2023-05-23T02:59:53;21.90;53.90
15844;DHT22;50807;52.436;13.346;2023-05-23T03:00:24;21.90;53.40
15844;DHT22;50807;52.436;13.346;2023-05-23T03:00:55;21.90;53.40
15844;DHT22;50807;52.436;13.346;2023-05-23T03:01:26;21.90;53.40
15844;DHT22;50807;52.436;13.346;2023-05-23T03:01:58;21.90;53.70
15844;DHT22;50807;52.436;13.346;2023-05-23T03:02:29;21.90;53.40
15844;DHT22;50807;52.436;13.346;2023-05-23T03:03:00;21.90;53.50
15844;DHT22;50807;52.436;13.346;2023-05-23T03:03:31;21.90;53.50
15844;DHT22;50807;52.436;13.346;2023-05-23T03:04:02;21.90;53.40
15844;DHT22;50807;52.436;13.346;2023-05-23T03:04:33;21.90;53.50
15844;DHT22;50807;52.436;13.346;2023-05-23T03:05:05;21.90;53.50
15844;DHT22;50807;52.436;13.346;2023-05-23T03:05:37;21.90;53.50
15844;DHT22;50807;52.436;13.346;2023-05-23T03:06:08;21.90;53.50
15844;DHT22;50807;52.436;13.346;2023-05-23T03:06:39;21.90;53.60
15844;DHT22;50807;52.436;13.346;2023-05-23T03:07:14;21.90;53.50
15844;DHT22;50807;52.436;13.346;2023-05-23T03:07:45;21.90;53.60
15844;DHT22;50807;52.436;13.346;2023-05-23T03:08:17;21.90;53.50
15844;DHT22;50807;52.436;13.346;2023-05-23T03:08:48;21.90;53.50
15844;DHT22;50807;52.436;13.346;2023-05-23T03:09:19;21.90;53.60
15844;DHT22;50807;52.436;13.346;2023-05-23T03:09:51;21.90;53.60
15844;DHT22;50807;52.436;13.346;2023-05-23T03:10:21;21.90;53.60
15844;DHT22;50807;52.436;13.346;2023-05-23T03:10:53;21.90;53.60
15844;DHT22;50807;52.436;13.346;2023-05-23T03:11:24;21.90;53.60
15844;DHT22;50807;52.436;13.346;2023-05-23T03:11:55;21.90;53.60
15844;DHT22;50807;52.436;13.346;2023-05-23T03:12:27;21.90;53.60
15844;DHT22;50807;52.436;13.346;2023-05-23T03:12:58;21.90;53.70
15844;DHT22;50807;52.436;13.346;2023-05-23T03:13:29;21.90;53.60
15844;DHT22;50807;52.436;13.346;2023-05-23T03:14:02;21.90;53.70
15844;DHT22;50807;52.436;13.346;2023-05-23T03:14:33;21.90;53.60
15844;DHT22;50807;52.436;13.346;2023-05-23T03:15:04;21.90;53.70
15844;DHT22;50807;52.436;13.346;2023-05-23T03:15:37;21.90;53.70
15844;DHT22;50807;52.436;13.346;2023-05-23T03:16:07;21.90;53.60
15844;DHT22;50807;52.436;13.346;2023-05-23T03:16:38;21.90;53.70
15844;DHT22;50807;52.436;13.346;2023-05-23T03:17:12;21.90;53.70
15844;DHT22;50807;52.436;13.346;2023-05-23T03:17:43;21.90;53.70
15844;DHT22;50807;52.436;13.346;2023-05-23T03:18:14;21.90;53.70
15844;DHT22;50807;52.436;13.346;2023-05-23T03:18:45;21.90;53.70
15844;DHT22;50807;52.436;13.346;2023-05-23T03:19:16;21.90;53.70
15844;DHT22;50807;52.436;13.346;2023-05-23T03:19:47;21.90;53.70
15844;DHT22;50807;52.436;13.346;2023-05-23T03:20:18;21.90;53.70
15844;DHT22;50807;52.436;13.346;2023-05-23T03:20:50;21.90;53.70
15844;DHT22;50807;52.436;13.346;2023-05-23T03:21:20;21.90;53.70
15844;DHT22;50807;52.436;13.346;2023-05-23T03:21:51;21.90;53.70
15844;DHT22;50807;52.436;13.346;2023-05-23T03:22:23;21.90;53.80